Time;durP1;ratioP1;P1;durP2;ratioP2;P2;SDS_P1;SDS_P2;PMS_P1;PMS_P2;Temp;Humidity;BMP_temperature;BMP_pressure;BME280_temperature;BME280_humidity;BME280_pressure;Samples;Min_cycle;Max_cycle;Signal;HPM_P1;HPM_P2
2024/01/03 00:00:25;;;;;;;;;;;16.00;71.10;;;;;;7323059;19;9433;-58
2024/01/03 00:03:19;;;;;;;;;;;16.00;71.20;;;;;;7321111;19;9514;-57
2024/01/03 00:05:48;;;;;;;;;;;16.00;71.30;;;;;;7322214;19;9265;-57
2024/01/03 00:08:26;;;;;;;;;;;15.90;71.30;;;;;;7322556;19;9593;-57
2024/01/03 00:10:57;;;;;;;;;;;15.90;71.40;;;;;;7321380;19;10190;-57
2024/01/03 00:14:02;;;;;;;;;;;15.90;71.40;;;;;;7321691;19;9532;-57
2024/01/03 00:16:31;;;;;;;;;;;16.00;71.40;;;;;;7320595;19;9461;-58
2024/01/03 00:19:08;;;;;;;;;;;16.00;71.40;;;;;;7321737;19;9285;-57
2024/01/03 00:21:57;;;;;;;;;;;16.00;71.30;;;;;;7320719;19;9390;-57
2024/01/03 00:24:26;;;;;;;;;;;16.10;71.10;;;;;;7322310;19;9445;-57
2024/01/03 00:26:56;;;;;;;;;;;16.20;71.10;;;;;;7322024;19;9432;-57
2024/01/03 00:29:56;;;;;;;;;;;16.20;70.80;;;;;;7325828;19;9299;-57
2024/01/03 00:32:26;;;;;;;;;;;16.30;70.70;;;;;;7328207;19;9187;-57
2024/01/03 00:35:00;;;;;;;;;;;16.40;70.60;;;;;;7328655;19;9481;-57
2024/01/03 00:37:31;;;;;;;;;;;16.40;70.50;;;;;;7329125;19;9192;-57
2024/01/03 00:40:02;;;;;;;;;;;16.50;70.40;;;;;;7328262;19;9398;-57
2024/01/03 00:42:31;;;;;;;;;;;16.60;70.30;;;;;;7329024;19;9241;-57
2024/01/03 00:45:00;;;;;;;;;;;16.60;70.10;;;;;;7327876;19;9466;-57
2024/01/03 00:47:30;;;;;;;;;;;16.60;70.10;;;;;;7328543;19;9616;-57
2024/01/03 00:50:01;;;;;;;;;;;16.70;70.00;;;;;;7328078;19;9734;-57
2024/01/03 00:52:33;;;;;;;;;;;16.70;69.90;;;;;;7328638;19;10673;-57
2024/01/03 00:55:03;;;;;;;;;;;16.70;69.80;;;;;;7327709;19;9275;-57
2024/01/03 00:57:34;;;;;;;;;;;16.70;69.80;;;;;;7328434;19;9464;-57
2024/01/03 01:00:03;;;;;;;;;;;16.70;69.80;;;;;;7326897;19;10672;-57
2024/01/03 01:02:33;;;;;;;;;;;16.70;69.80;;;;;;7328014;19;9344;-57
2024/01/03 01:05:05;;;;;;;;;;;16.70;69.80;;;;;;7327464;19;9157;-57
2024/01/03 01:07:34;;;;;;;;;;;16.70;69.90;;;;;;7327263;19;9506;-57
2024/01/03 01:10:24;;;;;;;;;;;16.70;70.10;;;;;;7326218;19;9609;-57
2024/01/03 01:12:53;;;;;;;;;;;16.60;69.90;;;;;;7328121;19;9229;-57
2024/01/03 01:15:42;;;;;;;;;;;16.60;69.90;;;;;;7327120;19;9497;-57
2024/01/03 01:18:11;;;;;;;;;;;16.60;70.00;;;;;;7327429;19;9582;-57
2024/01/03 01:20:42;;;;;;;;;;;16.50;70.00;;;;;;7326524;19;9162;-57
2024/01/03 01:23:11;;;;;;;;;;;16.50;70.10;;;;;;7327145;19;9472;-57
2024/01/03 01:25:41;;;;;;;;;;;16.50;70.20;;;;;;7327075;19;9454;-57
2024/01/03 01:28:10;;;;;;;;;;;16.40;70.20;;;;;;7327698;19;9515;-57
2024/01/03 01:30:39;;;;;;;;;;;16.40;70.20;;;;;;7326025;19;9631;-57
2024/01/03 01:33:08;;;;;;;;;;;16.40;70.30;;;;;;7327975;19;9192;-57
2024/01/03 01:35:37;;;;;;;;;;;16.30;70.40;;;;;;7326948;19;9539;-57
2024/01/03 01:38:09;;;;;;;;;;;16.30;70.40;;;;;;7326644;19;9218;-57
2024/01/03 01:40:38;;;;;;;;;;;16.20;70.40;;;;;;7323770;19;9158;-57
2024/01/03 01:43:07;;;;;;;;;;;16.20;70.50;;;;;;7327026;19;9279;-57
2024/01/03 01:45:36;;;;;;;;;;;16.20;70.60;;;;;;7327178;19;9471;-57
2024/01/03 01:48:27;;;;;;;;;;;16.20;70.60;;;;;;7324786;19;9388;-57
2024/01/03 01:51:18;;;;;;;;;;;16.10;70.60;;;;;;7325366;19;9357;-57
2024/01/03 01:53:50;;;;;;;;;;;16.10;70.70;;;;;;7325992;19;9191;-57
2024/01/03 01:56:22;;;;;;;;;;;16.10;70.70;;;;;;7325385;19;9549;-57
2024/01/03 01:58:52;;;;;;;;;;;16.00;70.70;;;;;;7323622;19;9570;-57
2024/01/03 02:01:23;;;;;;;;;;;16.00;70.80;;;;;;7327032;19;9489;-57
2024/01/03 02:03:54;;;;;;;;;;;16.00;70.80;;;;;;7325197;19;9340;-57
2024/01/03 02:06:25;;;;;;;;;;;16.00;70.90;;;;;;7325531;19;10680;-57
2024/01/03 02:08:56;;;;;;;;;;;15.90;70.90;;;;;;7326579;19;9277;-57
2024/01/03 02:11:25;;;;;;;;;;;15.90;70.90;;;;;;7326031;19;10332;-57
2024/01/03 02:13:54;;;;;;;;;;;15.90;71.00;;;;;;7325754;19;9443;-57
2024/01/03 02:16:23;;;;;;;;;;;15.90;71.10;;;;;;7325339;19;9214;-57
2024/01/03 02:18:52;;;;;;;;;;;16.00;71.00;;;;;;7325232;19;11558;-57
2024/01/03 02:21:24;;;;;;;;;;;16.00;71.00;;;;;;7326244;19;9477;-57
2024/01/03 02:23:53;;;;;;;;;;;16.00;70.80;;;;;;7325394;19;9501;-57
2024/01/03 02:26:22;;;;;;;;;;;16.10;70.70;;;;;;7325414;19;9637;-57
2024/01/03 02:28:51;;;;;;;;;;;16.20;70.50;;;;;;7324375;19;9486;-57
2024/01/03 02:31:20;;;;;;;;;;;16.20;70.40;;;;;;7325771;19;9344;-57
2024/01/03 02:33:49;;;;;;;;;;;16.30;70.30;;;;;;7325806;19;9550;-57
2024/01/03 02:36:18;;;;;;;;;;;16.40;70.30;;;;;;7324615;19;10863;-57
2024/01/03 02:38:56;;;;;;;;;;;16.40;70.10;;;;;;7325342;19;10343;-57
2024/01/03 02:41:25;;;;;;;;;;;16.50;70.10;;;;;;7325957;19;9367;-57
2024/01/03 02:43:54;;;;;;;;;;;16.50;69.90;;;;;;7325091;19;9385;-58
2024/01/03 02:46:23;;;;;;;;;;;16.60;69.80;;;;;;7325421;19;9473;-57
2024/01/03 02:48:52;;;;;;;;;;;16.60;69.60;;;;;;7325109;19;9456;-57
2024/01/03 02:51:21;;;;;;;;;;;16.70;69.70;;;;;;7323926;19;9546;-57
2024/01/03 02:53:53;;;;;;;;;;;16.70;69.60;;;;;;7324403;19;9403;-57
2024/01/03 02:56:23;;;;;;;;;;;16.70;69.60;;;;;;7325058;19;9261;-57
2024/01/03 02:58:52;;;;;;;;;;;16.70;69.50;;;;;;7324489;19;9287;-57
2024/01/03 03:01:21;;;;;;;;;;;16.70;69.60;;;;;;7324678;19;10398;-57
2024/01/03 03:03:50;;;;;;;;;;;16.70;70.20;;;;;;7324030;19;9658;-57
2024/01/03 03:06:18;;;;;;;;;;;16.70;69.60;;;;;;7323551;19;9132;-57
2024/01/03 03:08:47;;;;;;;;;;;16.60;69.60;;;;;;7324137;19;9246;-57
2024/01/03 03:11:19;;;;;;;;;;;16.60;69.60;;;;;;7324125;19;9495;-57
2024/01/03 03:13:48;;;;;;;;;;;16.60;69.60;;;;;;7324169;19;9629;-57
2024/01/03 03:16:17;;;;;;;;;;;16.50;69.60;;;;;;7323886;19;9629;-57
2024/01/03 03:18:46;;;;;;;;;;;16.50;69.70;;;;;;7324837;19;9678;-57
2024/01/03 03:21:15;;;;;;;;;;;16.50;69.80;;;;;;7323108;19;9209;-57
2024/01/03 03:23:44;;;;;;;;;;;16.50;69.80;;;;;;7324232;19;9218;-57
2024/01/03 03:26:13;;;;;;;;;;;16.40;69.90;;;;;;7323403;19;9206;-57
2024/01/03 03:28:45;;;;;;;;;;;16.40;69.90;;;;;;7323973;19;9468;-57
2024/01/03 03:31:14;;;;;;;;;;;16.40;70.00;;;;;;7322964;19;9160;-57
2024/01/03 03:33:42;;;;;;;;;;;16.30;70.00;;;;;;7323221;19;9481;-57
2024/01/03 03:36:15;;;;;;;;;;;16.30;70.10;;;;;;7322273;19;9433;-57
2024/01/03 03:38:44;;;;;;;;;;;16.20;70.10;;;;;;7323952;19;9604;-58
2024/01/03 03:41:14;;;;;;;;;;;16.20;70.10;;;;;;7323394;19;9220;-57
2024/01/03 03:43:46;;;;;;;;;;;16.20;70.20;;;;;;7323438;19;9416;-60
2024/01/03 03:46:15;;;;;;;;;;;16.10;70.20;;;;;;7322962;19;9629;-57
2024/01/03 03:49:07;;;;;;;;;;;16.10;70.20;;;;;;7321500;19;9575;-57
2024/01/03 03:51:36;;;;;;;;;;;16.10;70.30;;;;;;7323131;19;10656;-57
2024/01/03 03:54:05;;;;;;;;;;;16.00;70.30;;;;;;7322865;19;9469;-57
2024/01/03 03:56:35;;;;;;;;;;;16.00;70.30;;;;;;7322944;19;9301;-57
2024/01/03 03:59:07;;;;;;;;;;;16.00;70.40;;;;;;7322538;19;10519;-57
2024/01/03 04:01:36;;;;;;;;;;;16.00;70.40;;;;;;7322932;19;9573;-57
2024/01/03 04:04:05;;;;;;;;;;;15.90;70.40;;;;;;7325776;19;9249;-57
2024/01/03 04:06:34;;;;;;;;;;;16.00;70.50;;;;;;7328322;19;11518;-57
2024/01/03 04:09:02;;;;;;;;;;;15.90;70.50;;;;;;7329503;19;9464;-57
2024/01/03 04:11:32;;;;;;;;;;;15.90;70.60;;;;;;7327646;19;9447;-57
2024/01/03 04:14:00;;;;;;;;;;;16.00;70.60;;;;;;7329376;19;9312;-57
2024/01/03 04:16:32;;;;;;;;;;;16.00;70.50;;;;;;7328660;19;9394;-57
2024/01/03 04:19:01;;;;;;;;;;;16.00;70.50;;;;;;7328834;19;9649;-57
2024/01/03 04:21:30;;;;;;;;;;;16.10;70.30;;;;;;7328120;19;9149;-57
2024/01/03 04:23:59;;;;;;;;;;;16.20;70.20;;;;;;7329596;19;10580;-57
2024/01/03 04:26:29;;;;;;;;;;;16.20;70.20;;;;;;7328613;19;9203;-57
2024/01/03 04:28:58;;;;;;;;;;;16.30;70.00;;;;;;7328854;19;9499;-57
2024/01/03 04:31:26;;;;;;;;;;;16.30;69.80;;;;;;7326770;19;9652;-57
2024/01/03 04:33:58;;;;;;;;;;;16.40;69.80;;;;;;7328461;19;9199;-57
2024/01/03 04:36:28;;;;;;;;;;;16.50;69.80;;;;;;7328679;19;9522;-57
2024/01/03 04:38:57;;;;;;;;;;;16.50;69.60;;;;;;7328385;19;9469;-57
2024/01/03 04:41:26;;;;;;;;;;;16.60;69.60;;;;;;7328838;19;9217;-57
2024/01/03 04:43:55;;;;;;;;;;;16.60;69.50;;;;;;7327148;19;11248;-57
2024/01/03 04:46:24;;;;;;;;;;;16.60;69.30;;;;;;7327630;19;9211;-57
2024/01/03 04:48:53;;;;;;;;;;;16.60;69.30;;;;;;7327312;19;9718;-57
2024/01/03 04:51:25;;;;;;;;;;;16.70;69.30;;;;;;7327939;19;9453;-57
2024/01/03 04:53:54;;;;;;;;;;;16.70;69.20;;;;;;7327494;19;9484;-57
2024/01/03 04:56:24;;;;;;;;;;;16.70;69.30;;;;;;7327356;19;10537;-57
2024/01/03 04:58:54;;;;;;;;;;;16.70;69.30;;;;;;7328085;19;9140;-57
2024/01/03 05:01:23;;;;;;;;;;;16.70;69.30;;;;;;7327435;19;9509;-57
2024/01/03 05:03:52;;;;;;;;;;;16.60;69.30;;;;;;7327738;19;9503;-57
2024/01/03 05:06:21;;;;;;;;;;;16.60;69.30;;;;;;7326729;19;9477;-57
2024/01/03 05:08:53;;;;;;;;;;;16.60;69.40;;;;;;7327129;19;9184;-57
2024/01/03 05:11:22;;;;;;;;;;;16.60;69.40;;;;;;7326988;19;9457;-57
2024/01/03 05:13:51;;;;;;;;;;;16.50;69.50;;;;;;7328341;19;9908;-57
2024/01/03 05:16:21;;;;;;;;;;;16.50;69.50;;;;;;7325533;19;9461;-57
2024/01/03 05:18:50;;;;;;;;;;;16.40;69.60;;;;;;7326680;19;9125;-57
2024/01/03 05:21:19;;;;;;;;;;;16.50;69.60;;;;;;7327491;19;9545;-57
2024/01/03 05:23:48;;;;;;;;;;;16.50;69.70;;;;;;7328143;19;9323;-57
2024/01/03 05:26:19;;;;;;;;;;;16.40;69.80;;;;;;7326956;19;9290;-57
2024/01/03 05:28:48;;;;;;;;;;;16.40;69.80;;;;;;7326544;19;9378;-57
2024/01/03 05:31:17;;;;;;;;;;;16.30;69.80;;;;;;7326396;19;9682;-57
2024/01/03 05:33:46;;;;;;;;;;;16.30;69.90;;;;;;7327790;19;12978;-57
2024/01/03 05:36:35;;;;;;;;;;;16.30;70.00;;;;;;7325662;19;9228;-57
2024/01/03 05:39:04;;;;;;;;;;;16.20;70.00;;;;;;7326812;19;9644;-57
2024/01/03 05:41:35;;;;;;;;;;;16.20;70.10;;;;;;7327561;19;10348;-57
2024/01/03 05:44:04;;;;;;;;;;;16.10;70.20;;;;;;7325894;19;9237;-57
2024/01/03 05:46:33;;;;;;;;;;;16.10;70.20;;;;;;7326661;19;9474;-57
2024/01/03 05:49:02;;;;;;;;;;;16.10;70.30;;;;;;7325775;19;9210;-57
2024/01/03 05:51:31;;;;;;;;;;;16.10;70.40;;;;;;7327352;19;9497;-57
2024/01/03 05:54:20;;;;;;;;;;;16.00;70.30;;;;;;7324902;19;9452;-57
2024/01/03 05:56:52;;;;;;;;;;;16.00;70.40;;;;;;7325719;19;9219;-57
2024/01/03 05:59:22;;;;;;;;;;;16.00;70.50;;;;;;7326271;19;9189;-57
2024/01/03 06:01:51;;;;;;;;;;;16.00;70.50;;;;;;7326045;19;9554;-57
2024/01/03 06:04:40;;;;;;;;;;;15.90;70.60;;;;;;7324631;19;9497;-57
2024/01/03 06:07:09;;;;;;;;;;;15.90;70.60;;;;;;7324767;19;9443;-57
2024/01/03 06:09:39;;;;;;;;;;;15.90;70.70;;;;;;7325602;19;10307;-57
2024/01/03 06:12:13;;;;;;;;;;;15.90;70.70;;;;;;7326016;19;9192;-57
2024/01/03 06:14:42;;;;;;;;;;;15.90;70.60;;;;;;7325474;19;9499;-57
2024/01/03 06:17:11;;;;;;;;;;;16.00;70.60;;;;;;7325581;19;9158;-57
2024/01/03 06:19:40;;;;;;;;;;;16.10;70.50;;;;;;7324670;19;9289;-57
2024/01/03 06:22:09;;;;;;;;;;;16.10;70.40;;;;;;7325741;19;10318;-57
2024/01/03 06:24:57;;;;;;;;;;;16.20;70.30;;;;;;7323185;19;9512;-57
2024/01/03 06:27:29;;;;;;;;;;;16.20;70.10;;;;;;7323157;19;9503;-57
2024/01/03 06:29:58;;;;;;;;;;;16.30;70.00;;;;;;7325865;19;9613;-57
2024/01/03 06:32:27;;;;;;;;;;;16.30;70.00;;;;;;7324754;19;9549;-57
2024/01/03 06:34:56;;;;;;;;;;;16.40;70.00;;;;;;7325024;19;10707;-57
2024/01/03 06:37:25;;;;;;;;;;;16.50;69.80;;;;;;7325318;19;9278;-57
2024/01/03 06:39:54;;;;;;;;;;;16.50;69.70;;;;;;7325067;19;9569;-57
2024/01/03 06:42:22;;;;;;;;;;;16.60;69.60;;;;;;7324499;19;9612;-57
2024/01/03 06:44:54;;;;;;;;;;;16.60;69.70;;;;;;7325169;19;9258;-57
2024/01/03 06:47:23;;;;;;;;;;;16.60;69.40;;;;;;7324773;19;9449;-57
2024/01/03 06:49:53;;;;;;;;;;;16.70;69.60;;;;;;7325334;19;9154;-57
2024/01/03 06:52:22;;;;;;;;;;;16.70;69.40;;;;;;7324090;19;9524;-57
2024/01/03 06:54:51;;;;;;;;;;;16.70;69.40;;;;;;7324844;19;9641;-57
2024/01/03 06:57:20;;;;;;;;;;;16.70;69.40;;;;;;7324327;19;9286;-57
2024/01/03 06:59:50;;;;;;;;;;;16.70;69.50;;;;;;7325038;19;9439;-57
2024/01/03 07:02:21;;;;;;;;;;;16.70;69.40;;;;;;7324170;19;9465;-57
2024/01/03 07:04:51;;;;;;;;;;;16.70;69.60;;;;;;7324021;19;9494;-57
2024/01/03 07:07:19;;;;;;;;;;;16.60;69.50;;;;;;7324472;19;9590;-57
2024/01/03 07:09:48;;;;;;;;;;;16.60;69.60;;;;;;7323870;19;9514;-57
2024/01/03 07:12:18;;;;;;;;;;;16.60;69.60;;;;;;7324664;19;9796;-57
2024/01/03 07:14:48;;;;;;;;;;;16.60;69.70;;;;;;7324064;19;9542;-57
2024/01/03 07:17:16;;;;;;;;;;;16.50;69.80;;;;;;7323934;19;9320;-57
2024/01/03 07:19:48;;;;;;;;;;;16.50;69.80;;;;;;7324352;19;9275;-57
2024/01/03 07:22:17;;;;;;;;;;;16.40;69.90;;;;;;7323896;19;9128;-57
2024/01/03 07:24:47;;;;;;;;;;;16.40;69.90;;;;;;7322495;19;9670;-57
2024/01/03 07:27:16;;;;;;;;;;;16.40;70.00;;;;;;7324150;19;9218;-57
2024/01/03 07:29:45;;;;;;;;;;;16.40;70.10;;;;;;7323278;19;9014;-57
2024/01/03 07:32:14;;;;;;;;;;;16.30;70.10;;;;;;7323502;19;9218;-57
2024/01/03 07:34:43;;;;;;;;;;;16.30;70.20;;;;;;7323367;19;9441;-57
2024/01/03 07:37:14;;;;;;;;;;;16.20;70.20;;;;;;7323261;19;9306;-57
2024/01/03 07:39:43;;;;;;;;;;;16.20;70.30;;;;;;7320805;19;9453;-57
2024/01/03 07:42:12;;;;;;;;;;;16.10;70.30;;;;;;7323391;19;10398;-57
2024/01/03 07:44:42;;;;;;;;;;;16.10;70.30;;;;;;7323993;19;9528;-57
2024/01/03 07:47:11;;;;;;;;;;;16.10;71.00;;;;;;7322284;19;9229;-57
2024/01/03 07:49:42;;;;;;;;;;;16.10;70.50;;;;;;7322275;19;9194;-57
2024/01/03 07:52:14;;;;;;;;;;;16.10;70.60;;;;;;7321768;19;9207;-57
2024/01/03 07:54:43;;;;;;;;;;;16.00;70.50;;;;;;7323198;19;9743;-57
2024/01/03 07:57:12;;;;;;;;;;;16.00;70.60;;;;;;7322282;19;9457;-57
2024/01/03 07:59:44;;;;;;;;;;;16.00;70.60;;;;;;7322284;19;9414;-57
2024/01/03 08:02:14;;;;;;;;;;;16.00;70.70;;;;;;7322125;19;9554;-57
2024/01/03 08:04:43;;;;;;;;;;;15.90;70.70;;;;;;7322170;19;9473;-57
2024/01/03 08:07:15;;;;;;;;;;;15.90;70.80;;;;;;7322218;19;9633;-57
2024/01/03 08:09:44;;;;;;;;;;;15.90;70.80;;;;;;7320838;19;9459;-57
2024/01/03 08:12:33;;;;;;;;;;;15.90;70.90;;;;;;7320732;19;9429;-57
2024/01/03 08:15:02;;;;;;;;;;;15.90;71.00;;;;;;7321567;19;9185;-57
2024/01/03 08:17:31;;;;;;;;;;;15.90;70.90;;;;;;7322125;19;9469;-57
2024/01/03 08:20:00;;;;;;;;;;;15.90;70.90;;;;;;7321956;19;9407;-57
2024/01/03 08:22:32;;;;;;;;;;;15.90;70.90;;;;;;7320791;19;9453;-57
2024/01/03 08:25:01;;;;;;;;;;;16.00;70.90;;;;;;7320314;19;10340;-57
2024/01/03 08:27:31;;;;;;;;;;;16.00;70.80;;;;;;7321586;19;9211;-57
2024/01/03 08:30:00;;;;;;;;;;;16.10;71.00;;;;;;7322477;19;9745;-57
2024/01/03 08:32:29;;;;;;;;;;;16.20;70.50;;;;;;7320827;19;9505;-57
2024/01/03 08:34:58;;;;;;;;;;;16.20;70.40;;;;;;7321781;19;10506;-57
2024/01/03 08:37:28;;;;;;;;;;;16.30;70.20;;;;;;7320589;19;9465;-57
2024/01/03 08:40:00;;;;;;;;;;;16.40;70.20;;;;;;7321235;19;9613;-57
2024/01/03 08:42:29;;;;;;;;;;;16.40;70.00;;;;;;7320534;19;10784;-57
2024/01/03 08:44:58;;;;;;;;;;;16.50;70.00;;;;;;7321042;19;9458;-57
2024/01/03 08:47:27;;;;;;;;;;;16.50;69.80;;;;;;7320132;19;9405;-57
2024/01/03 08:49:56;;;;;;;;;;;16.60;69.80;;;;;;7323050;19;9419;-57
2024/01/03 08:52:25;;;;;;;;;;;16.60;69.70;;;;;;7326828;19;9665;-57
2024/01/03 08:54:54;;;;;;;;;;;16.60;69.60;;;;;;7327268;19;9521;-57
2024/01/03 08:57:45;;;;;;;;;;;16.60;69.60;;;;;;7326351;19;9245;-57
2024/01/03 09:00:15;;;;;;;;;;;16.70;69.80;;;;;;7327060;19;9601;-57
2024/01/03 09:02:45;;;;;;;;;;;16.70;69.60;;;;;;7327615;19;9609;-58
2024/01/03 09:05:34;;;;;;;;;;;16.70;69.50;;;;;;7324819;19;9510;-57
2024/01/03 09:08:03;;;;;;;;;;;16.70;69.70;;;;;;7326447;19;9349;-57
2024/01/03 09:10:32;;;;;;;;;;;16.70;69.60;;;;;;7326497;19;9795;-57
2024/01/03 09:13:03;;;;;;;;;;;16.60;69.70;;;;;;7326544;19;9258;-57
2024/01/03 09:15:32;;;;;;;;;;;16.60;69.60;;;;;;7327685;19;9572;-57
2024/01/03 09:18:01;;;;;;;;;;;16.60;69.60;;;;;;7326339;19;9404;-57
2024/01/03 09:20:33;;;;;;;;;;;16.60;69.70;;;;;;7326905;19;9453;-57
2024/01/03 09:23:02;;;;;;;;;;;16.50;69.80;;;;;;7325362;19;9520;-57
2024/01/03 09:25:31;;;;;;;;;;;16.50;69.80;;;;;;7326338;19;9470;-57
2024/01/03 09:28:02;;;;;;;;;;;16.50;69.90;;;;;;7326329;19;9461;-57
2024/01/03 09:30:31;;;;;;;;;;;16.40;70.00;;;;;;7326518;19;9573;-57
2024/01/03 09:33:00;;;;;;;;;;;16.40;70.00;;;;;;7325420;19;10986;-57
2024/01/03 09:35:29;;;;;;;;;;;16.40;70.10;;;;;;7327121;19;9379;-57
2024/01/03 09:37:58;;;;;;;;;;;16.40;70.20;;;;;;7326270;19;9467;-57
2024/01/03 09:40:27;;;;;;;;;;;16.30;70.20;;;;;;7326214;19;9168;-57
2024/01/03 09:42:57;;;;;;;;;;;16.30;70.30;;;;;;7326045;19;9458;-57
2024/01/03 09:45:29;;;;;;;;;;;16.30;70.40;;;;;;7325275;19;9540;-57
2024/01/03 09:47:58;;;;;;;;;;;16.30;70.40;;;;;;7326358;19;10313;-57
2024/01/03 09:50:47;;;;;;;;;;;16.20;70.50;;;;;;7323397;19;9489;-57
2024/01/03 09:53:17;;;;;;;;;;;16.20;70.50;;;;;;7325690;19;9604;-57
2024/01/03 09:55:46;;;;;;;;;;;16.20;70.60;;;;;;7325127;19;9280;-57
2024/01/03 09:58:15;;;;;;;;;;;16.10;70.60;;;;;;7325334;19;9643;-57
2024/01/03 10:00:47;;;;;;;;;;;16.10;70.70;;;;;;7324755;19;9277;-57
2024/01/03 10:03:18;;;;;;;;;;;16.10;70.60;;;;;;7324080;19;9259;-57
2024/01/03 10:05:49;;;;;;;;;;;16.10;70.80;;;;;;7324942;19;9528;-57
2024/01/03 10:08:20;;;;;;;;;;;16.10;70.80;;;;;;7324027;19;9452;-57
2024/01/03 10:10:49;;;;;;;;;;;16.00;70.80;;;;;;7325427;19;9301;-56
2024/01/03 10:13:20;;;;;;;;;;;16.00;70.90;;;;;;7324618;19;9413;-57
2024/01/03 10:15:52;;;;;;;;;;;16.00;70.90;;;;;;7324925;19;9481;-57
2024/01/03 10:18:21;;;;;;;;;;;16.00;70.90;;;;;;7324034;19;9457;-57
2024/01/03 10:20:50;;;;;;;;;;;15.90;70.90;;;;;;7325413;19;9301;-57
2024/01/03 10:23:21;;;;;;;;;;;15.90;71.00;;;;;;7324760;19;9822;-57
2024/01/03 10:25:57;;;;;;;;;;;16.00;71.40;;;;;;7325199;19;9445;-57
2024/01/03 10:28:26;;;;;;;;;;;15.90;71.10;;;;;;7325343;19;9457;-57
2024/01/03 10:30:59;;;;;;;;;;;16.00;71.10;;;;;;7324977;19;9465;-58
2024/01/03 10:33:29;;;;;;;;;;;16.00;71.20;;;;;;7324747;19;9451;-57
2024/01/03 10:35:58;;;;;;;;;;;16.00;71.00;;;;;;7323938;19;9517;-57
2024/01/03 10:38:32;;;;;;;;;;;16.10;70.80;;;;;;7325335;19;9174;-57
2024/01/03 10:41:02;;;;;;;;;;;16.20;70.70;;;;;;7324162;19;9119;-57
2024/01/03 10:43:33;;;;;;;;;;;16.20;70.60;;;;;;7324627;19;9529;-57
2024/01/03 10:46:07;;;;;;;;;;;16.30;70.50;;;;;;7323601;19;9370;-57
2024/01/03 10:48:36;;;;;;;;;;;16.40;70.40;;;;;;7322785;19;9437;-57
2024/01/03 10:51:26;;;;;;;;;;;16.40;70.40;;;;;;7322544;19;9259;-56
2024/01/03 10:53:58;;;;;;;;;;;16.50;70.20;;;;;;7323318;19;9604;-57
2024/01/03 10:56:28;;;;;;;;;;;16.60;70.10;;;;;;7324325;19;9567;-57
2024/01/03 10:58:58;;;;;;;;;;;16.70;70.10;;;;;;7323344;19;9469;-57
2024/01/03 11:01:36;;;;;;;;;;;16.70;70.00;;;;;;7324570;19;9485;-57
2024/01/03 11:04:18;;;;;;;;;;;16.70;69.90;;;;;;7323200;19;9402;-57
2024/01/03 11:06:59;;;;;;;;;;;16.80;69.90;;;;;;7322291;19;9340;-57
2024/01/03 11:09:29;;;;;;;;;;;16.80;69.70;;;;;;7324339;19;9505;-57
2024/01/03 11:12:10;;;;;;;;;;;16.80;69.80;;;;;;7323466;19;9421;-57
2024/01/03 11:14:39;;;;;;;;;;;16.80;69.80;;;;;;7324011;19;9424;-57
2024/01/03 11:17:13;;;;;;;;;;;16.80;69.80;;;;;;7321866;19;9234;-57
2024/01/03 11:19:42;;;;;;;;;;;16.80;69.70;;;;;;7322312;19;9758;-57
2024/01/03 11:23:01;;;;;;;;;;;16.80;69.80;;;;;;7314395;19;9249;-59
2024/01/03 11:25:51;;;;;;;;;;;16.80;69.90;;;;;;7282894;19;9876;-58
2024/01/03 11:28:33;;;;;;;;;;;16.80;69.90;;;;;;7304500;19;10747;-58
2024/01/03 11:31:02;;;;;;;;;;;16.80;70.00;;;;;;7311306;19;9574;-59
2024/01/03 11:33:44;;;;;;;;;;;16.80;70.10;;;;;;7310930;19;9245;-61
2024/01/03 11:36:13;;;;;;;;;;;16.80;70.10;;;;;;7315526;19;9257;-60
2024/01/03 11:38:40;;;;;;;;;;;16.80;70.20;;;;;;7310510;19;9930;-60
2024/01/03 11:41:27;;;;;;;;;;;16.80;70.10;;;;;;7316240;19;9484;-60
2024/01/03 11:43:57;;;;;;;;;;;16.80;70.20;;;;;;7312945;19;9508;-60
2024/01/03 11:46:26;;;;;;;;;;;16.80;70.10;;;;;;7316557;19;10674;-60
2024/01/03 11:49:09;;;;;;;;;;;16.80;70.10;;;;;;7314420;19;10567;-61
2024/01/03 11:51:38;;;;;;;;;;;16.90;70.10;;;;;;7315335;19;9517;-60
2024/01/03 11:54:08;;;;;;;;;;;16.90;70.20;;;;;;7316924;19;9657;-61
2024/01/03 11:56:37;;;;;;;;;;;16.90;70.20;;;;;;7310630;19;9635;-60
2024/01/03 11:59:06;;;;;;;;;;;16.90;70.20;;;;;;7316240;19;9242;-60
2024/01/03 12:01:36;;;;;;;;;;;17.00;70.10;;;;;;7312377;19;9459;-60
2024/01/03 12:04:15;;;;;;;;;;;17.10;70.20;;;;;;7315844;19;9486;-60
2024/01/03 12:06:44;;;;;;;;;;;17.10;70.10;;;;;;7316451;19;9675;-60
2024/01/03 12:09:19;;;;;;;;;;;17.20;70.10;;;;;;7317506;19;9577;-60
2024/01/03 12:11:48;;;;;;;;;;;17.20;69.90;;;;;;7282976;19;9684;-61
2024/01/03 12:14:19;;;;;;;;;;;17.30;70.00;;;;;;7310904;19;10191;-60
2024/01/03 12:16:49;;;;;;;;;;;17.40;69.80;;;;;;7287798;19;10596;-60
2024/01/03 12:19:28;;;;;;;;;;;17.50;69.80;;;;;;7313469;19;9259;-60
2024/01/03 12:21:58;;;;;;;;;;;17.60;69.60;;;;;;7314187;19;10692;-60
2024/01/03 12:24:41;;;;;;;;;;;17.60;69.40;;;;;;7314501;19;9841;-60
2024/01/03 12:27:11;;;;;;;;;;;17.70;69.30;;;;;;7320759;19;9598;-60
2024/01/03 12:29:41;;;;;;;;;;;17.80;69.40;;;;;;7320633;19;9420;-60
2024/01/03 12:32:14;;;;;;;;;;;17.80;69.70;;;;;;7319217;19;9285;-60
2024/01/03 12:34:47;;;;;;;;;;;17.90;69.10;;;;;;7312860;19;9635;-60
2024/01/03 12:37:16;;;;;;;;;;;18.00;69.20;;;;;;7316290;19;9658;-60
2024/01/03 12:39:46;;;;;;;;;;;18.00;69.20;;;;;;7318893;19;9458;-60
2024/01/03 12:42:14;;;;;;;;;;;18.10;69.20;;;;;;7322486;19;9257;-60
2024/01/03 12:44:44;;;;;;;;;;;18.20;69.00;;;;;;7318486;19;9245;-60
2024/01/03 12:47:13;;;;;;;;;;;18.30;69.00;;;;;;7315002;19;9473;-60
2024/01/03 12:49:47;;;;;;;;;;;18.30;68.90;;;;;;7319328;19;9486;-60
2024/01/03 12:52:27;;;;;;;;;;;18.40;68.90;;;;;;7320205;19;9006;-60
2024/01/03 12:55:00;;;;;;;;;;;18.50;68.90;;;;;;7320740;19;9572;-59
2024/01/03 12:57:28;;;;;;;;;;;18.50;68.80;;;;;;7319306;19;9164;-59
2024/01/03 12:59:58;;;;;;;;;;;18.50;68.80;;;;;;7319072;19;9613;-59
2024/01/03 13:02:27;;;;;;;;;;;18.60;68.90;;;;;;7318876;19;9603;-59
2024/01/03 13:05:20;;;;;;;;;;;18.60;68.90;;;;;;7315072;19;10205;-59
2024/01/03 13:07:49;;;;;;;;;;;18.60;68.80;;;;;;7318114;19;9552;-59
2024/01/03 13:10:18;;;;;;;;;;;18.60;68.90;;;;;;7317289;19;10739;-59
2024/01/03 13:12:47;;;;;;;;;;;18.60;68.90;;;;;;7318715;19;9261;-59
2024/01/03 13:15:16;;;;;;;;;;;18.60;69.10;;;;;;7316946;19;9589;-59
2024/01/03 13:17:45;;;;;;;;;;;18.60;69.10;;;;;;7318291;19;9273;-59
2024/01/03 13:20:15;;;;;;;;;;;18.60;69.10;;;;;;7318171;19;9164;-60
2024/01/03 13:22:46;;;;;;;;;;;18.70;69.10;;;;;;7318406;19;9479;-60
2024/01/03 13:25:15;;;;;;;;;;;18.60;69.10;;;;;;7318070;19;9481;-60
2024/01/03 13:27:44;;;;;;;;;;;18.70;69.10;;;;;;7314760;19;9528;-60
2024/01/03 13:30:15;;;;;;;;;;;18.70;69.20;;;;;;7315968;19;9296;-60
2024/01/03 13:32:44;;;;;;;;;;;18.70;69.10;;;;;;7317114;19;9430;-57
2024/01/03 13:35:13;;;;;;;;;;;18.70;69.10;;;;;;7316956;19;9352;-57
2024/01/03 13:37:42;;;;;;;;;;;18.70;69.20;;;;;;7319199;19;9388;-57
2024/01/03 13:40:39;;;;;;;;;;;18.70;69.10;;;;;;7316955;19;10178;-57
2024/01/03 13:43:08;;;;;;;;;;;18.80;69.10;;;;;;7318369;19;9522;-60
2024/01/03 13:45:36;;;;;;;;;;;18.80;69.10;;;;;;7314280;19;9475;-59
2024/01/03 13:48:08;;;;;;;;;;;18.80;69.10;;;;;;7317896;19;11289;-60
2024/01/03 13:50:37;;;;;;;;;;;18.80;69.10;;;;;;7318382;19;9667;-60
2024/01/03 13:53:06;;;;;;;;;;;18.80;69.10;;;;;;7317879;19;9241;-60
2024/01/03 13:55:38;;;;;;;;;;;18.80;69.10;;;;;;7318277;19;9633;-60
2024/01/03 13:58:07;;;;;;;;;;;18.80;69.10;;;;;;7316728;19;9457;-60
2024/01/03 14:00:35;;;;;;;;;;;18.80;69.10;;;;;;7315196;19;9339;-60
2024/01/03 14:03:06;;;;;;;;;;;18.90;69.10;;;;;;7318086;19;9301;-60
2024/01/03 14:05:56;;;;;;;;;;;18.90;69.00;;;;;;7319488;19;10187;-60
2024/01/03 14:08:25;;;;;;;;;;;18.90;69.10;;;;;;7314350;19;9128;-60
2024/01/03 14:10:58;;;;;;;;;;;18.90;69.20;;;;;;7315592;19;9617;-60
2024/01/03 14:13:27;;;;;;;;;;;18.90;69.20;;;;;;7318394;19;9513;-61
2024/01/03 14:15:56;;;;;;;;;;;18.90;69.10;;;;;;7317177;19;9341;-59
2024/01/03 14:18:25;;;;;;;;;;;18.90;69.10;;;;;;7313793;19;9576;-59
2024/01/03 14:20:55;;;;;;;;;;;18.90;69.30;;;;;;7315542;19;10669;-60
2024/01/03 14:23:24;;;;;;;;;;;19.00;69.20;;;;;;7318205;19;9242;-60
2024/01/03 14:25:56;;;;;;;;;;;19.00;69.30;;;;;;7317216;19;9482;-60
2024/01/03 14:28:25;;;;;;;;;;;19.00;69.30;;;;;;7318601;19;9410;-60
2024/01/03 14:30:55;;;;;;;;;;;19.00;69.30;;;;;;7311818;19;9877;-59
2024/01/03 14:33:24;;;;;;;;;;;19.00;69.30;;;;;;7313201;19;9536;-58
2024/01/03 14:35:53;;;;;;;;;;;19.00;69.40;;;;;;7316713;19;9571;-59
2024/01/03 14:38:42;;;;;;;;;;;19.00;69.40;;;;;;7314530;19;9352;-59
2024/01/03 14:41:15;;;;;;;;;;;19.00;69.50;;;;;;7317585;19;9468;-59
2024/01/03 14:43:46;;;;;;;;;;;19.00;69.40;;;;;;7318245;19;9475;-59
2024/01/03 14:46:36;;;;;;;;;;;19.10;69.50;;;;;;7316774;19;9389;-59
2024/01/03 14:49:04;;;;;;;;;;;19.00;69.40;;;;;;7317155;19;9516;-59
2024/01/03 14:51:33;;;;;;;;;;;19.00;69.40;;;;;;7316240;19;9390;-60
2024/01/03 14:54:02;;;;;;;;;;;19.10;69.60;;;;;;7313371;19;9380;-60